SGAS/ASU METAR and TAF weather

Enter ICAO airport designator
Station Type Date Time Source
SGAS METAR 2017/03/23 17:00 UTC NOAA

SGAS 231700Z 06006KT 010V100 9999 FEW033 BKN080 32/20 Q1013


Station Type Date Time Source
SGAS Decoded METAR 2017/03/23 17:00 UTC NOAA

Asuncion / Aeropuerto, Paraguay (SGAS) 25-16S 057-38W 101M
Mar 23, 2017 - 01:00 PM EDT / 2017.03.23 1700 UTC
Wind: from the ENE (060 degrees) at 7 MPH (6 KT) (direction variable):0
Visibility: greater than 7 mile(s):0
Sky conditions: mostly cloudy
Temperature: 89 F (32 C)
Dew Point: 68 F (20 C)
Relative Humidity: 49%
Pressure (altimeter): 29.91 in. Hg (1013 hPa)
ob: SGAS 231700Z 06006KT 010V100 9999 FEW033 BKN080 32/20 Q1013
cycle: 17

Station Type Date Time Source
SGAS TAF 2017/03/23 18:18 UTC NOAA

TAF TAF SGAS 231615Z 2318/2418 06007KT 9999 SCT040 TX32/2419Z TN23/2409Z
TEMPO 2321/2323 VRB05KT 8000 SCT030
BECMG 2402/2406 09004KT CAVOK
BECMG 2407/2410 9999 SCT030


Example: see airport list